Eckles, Minnesota
Current Conditions -  °F | °C
As of 11:51 PM on Wednesday 17 Dec 2014 (Local Time) from KBJI Reporting Station
Clear Clear  
Wind Chill:   Ceiling: Unl
Heat Index:   Visibility: 10mi
Dew Point:   Wind: 0mph
Humidity: 87%   Direction: NA
Pressure: 30.28"   Gusts: NA
Location:  47.5078°N, 95.0137°W
Report Text: KBJI 180551Z AUTO 00000KT 10SM CLR M16/M18 A3028 RMK AO2 T11601177
Loading
Personal Weather Stations






























Interactive Weather Map New forecast layout! Learn more

10-Day Weather Forecast

Advertisements
Track Severe Weather on mobile